Jump to content

  •  

HORIZON AIRLINES FLIGHT QX2428 FLOWN ON 01-06-2018 BY CAPTAIN TYLER HANUS

Pilot StatsCaptain Tyler Hanus (LDP525) • 294.2 total hours • 82 total flights [View Logbook]
FLIGHT DETAILS
StatusReceived and approved on 2018-01-06 at 16:01:18
Origin AirportRogue Valley Intl-Medford (KMFR) • Medford, Oregon, United States (1,335 feet MSL)
Filed Flight PlanFLIGHT PLANNER OFFLINE
Destination AirportSeattle-Tacoma Intl (KSEA) • Seattle, Washington, United States (433 feet MSL)
Alternate AirportBoeing Field-King Co Intl (KBFI) • Seattle, Washington, United States (18 feet MSL)
AirlineHorizon Airlines
AircraftDe Havilland DHC-8-400 Dash 8/8Q (DH4 / DHC-8-400)
FS Aircraft UsedMJC8Q400_QXE
Cruising AltitudeFL240
Distance Flown306 nautical miles
Passengers Onboard32 passengers (45.71% full)
DEPARTURE DETAILS
Time Out11:41:36
Taxi Data55,336 lbs total with 6,137 lbs of fuel onboard
Takeoff Data11:55:16 (14 minutes after leaving gate/ramp) • 55,105 lbs total • 19° pitch at 131 knots
Departure METARKMFR 061853Z 16003KT 2 1/2SM BR OVC003 06/06 A3030 RMK AO2 SLP263 T00560056
ARRIVAL DETAILS
Landing Data13:26:06 • 52,095 lbs total • 19° pitch doing 113 knots at a rate of -50.85 feet/minute with 2,783 lbs of fuel onboard
Time In13:32:47 (7 minutes after landing)
Ramp Weight51,983 lbs total
Total Fuel Used3,354 lbs
Total Block Time01:49:29 (1.8 hours) while 20 minutes were spent on the ground
Arrival METARKSEA 062053Z 21011G18KT 10SM OVC015 08/05 A3025 RMK AO2 RAE08 SLP253 P0000 60000 T00780050 50001
MISCELLANEOUS DETAILS
LiveDISPATCH Version4.8.3.1
FS Version
FSUIPC Version4.97
OS VersionWindows 7 32-bit
Screen Resolution1360 x 768
Pilot's CommentsNo Comments Reported
FLIGHT MAP